createdAt,value
2022-07-25T00:03:09.447Z,99.90
2022-07-25T00:08:31.029Z,99.90
2022-07-25T00:16:24.025Z,99.90
2022-07-25T00:35:12.057Z,99.90
2022-07-25T00:37:50.519Z,99.90
2022-07-25T00:43:01.226Z,99.90
2022-07-25T00:48:12.190Z,99.90
2022-07-25T01:01:34.704Z,99.90
2022-07-25T01:07:26.434Z,99.90
2022-07-25T01:18:29.993Z,99.90
2022-07-25T01:26:20.982Z,99.90
2022-07-25T01:50:33.457Z,99.90
2022-07-25T02:09:18.381Z,99.90
2022-07-25T02:36:22.745Z,99.90
2022-07-25T03:06:10.302Z,99.90
2022-07-25T03:08:42.473Z,99.90
2022-07-25T04:14:41.694Z,99.90
2022-07-25T05:08:06.471Z,99.90
2022-07-25T05:29:32.977Z,99.90
2022-07-25T05:32:00.428Z,99.90
2022-07-25T05:34:27.906Z,99.90
2022-07-25T05:36:55.341Z,99.90
2022-07-25T05:39:22.654Z,99.90
2022-07-25T05:41:50.121Z,99.90
2022-07-25T05:44:18.618Z,99.90
2022-07-25T05:46:46.021Z,99.90
2022-07-25T05:49:13.536Z,99.90
2022-07-25T05:51:41.091Z,99.90
2022-07-25T05:54:09.048Z,99.90
2022-07-25T05:56:36.731Z,99.90
2022-07-25T05:59:04.349Z,99.90
2022-07-25T06:01:31.804Z,99.90
2022-07-25T06:03:59.412Z,99.90
2022-07-25T06:06:26.942Z,99.90
2022-07-25T06:08:54.459Z,99.90
2022-07-25T06:11:22.569Z,99.90
2022-07-25T06:13:50.676Z,99.90
2022-07-25T06:16:19.015Z,99.90
2022-07-25T06:30:20.446Z,99.90
2022-07-25T06:35:19.122Z,99.90
2022-07-25T06:37:47.006Z,99.90
2022-07-25T06:40:14.959Z,99.90
2022-07-25T06:42:44.943Z,99.90
2022-07-25T06:45:13.371Z,99.90
2022-07-25T06:47:41.814Z,99.90
2022-07-25T06:50:11.703Z,99.90
2022-07-25T06:52:40.046Z,99.90
2022-07-25T06:55:09.579Z,99.90
2022-07-25T06:57:37.314Z,99.90
2022-07-25T07:00:11.376Z,99.90
2022-07-25T07:03:01.690Z,99.90
2022-07-25T07:05:32.854Z,99.90
2022-07-25T07:08:01.186Z,99.90
2022-07-25T07:10:29.855Z,99.90
2022-07-25T07:13:07.732Z,99.90
2022-07-25T07:15:37.072Z,99.90
2022-07-25T07:18:06.854Z,99.90
2022-07-25T07:20:34.594Z,99.90
2022-07-25T07:23:02.227Z,99.90
2022-07-25T07:25:30.909Z,99.90
2022-07-25T07:35:57.947Z,99.90
2022-07-25T07:38:25.907Z,99.90
2022-07-25T07:40:54.249Z,99.90
2022-07-25T07:43:25.019Z,99.90
2022-07-25T07:45:56.945Z,99.90
2022-07-25T07:48:24.434Z,99.90
2022-07-25T07:50:51.927Z,99.90
2022-07-25T07:53:19.309Z,99.90
2022-07-25T07:55:49.089Z,99.90
2022-07-25T07:58:18.975Z,99.90
2022-07-25T08:00:51.695Z,99.90
2022-07-25T08:03:22.519Z,99.90
2022-07-25T08:05:52.137Z,99.90
2022-07-25T08:08:20.824Z,99.90
2022-07-25T08:10:49.539Z,99.90
2022-07-25T08:13:28.772Z,99.90
2022-07-25T08:16:00.118Z,99.50
2022-07-25T08:18:33.088Z,99.10
2022-07-25T08:21:03.638Z,99.60
2022-07-25T08:23:32.098Z,99.90
2022-07-25T08:26:00.046Z,99.40
2022-07-25T08:28:28.149Z,99.10
2022-07-25T08:30:55.661Z,99.00
2022-07-25T08:33:23.550Z,99.00
2022-07-25T08:35:55.803Z,98.90
2022-07-25T08:38:24.469Z,99.60
2022-07-25T08:40:53.657Z,99.90
2022-07-25T08:43:22.970Z,99.80
2022-07-25T08:45:53.265Z,99.60
2022-07-25T08:48:24.500Z,98.80
2022-07-25T08:50:53.153Z,99.30
2022-07-25T08:53:39.176Z,97.90
2022-07-25T08:56:13.736Z,97.00
2022-07-25T08:58:44.447Z,95.70
2022-07-25T09:01:13.397Z,94.40
2022-07-25T09:03:43.225Z,91.40
2022-07-25T09:06:17.871Z,84.80
2022-07-25T09:09:00.095Z,77.60
2022-07-25T09:11:37.957Z,74.10
2022-07-25T09:14:09.580Z,75.40
2022-07-25T09:16:44.476Z,72.50
2022-07-25T09:19:29.183Z,71.40
2022-07-25T09:22:02.081Z,69.10
2022-07-25T09:24:31.111Z,69.20
2022-07-25T09:27:01.302Z,67.90
2022-07-25T09:29:33.909Z,67.40
2022-07-25T09:32:13.746Z,64.80
2022-07-25T09:34:42.737Z,66.20
2022-07-25T09:37:19.255Z,64.50
2022-07-25T09:42:50.892Z,61.30
2022-07-25T09:45:20.992Z,63.40
2022-07-25T09:50:38.099Z,64.50
2022-07-25T09:53:05.692Z,65.20
2022-07-25T09:55:33.076Z,66.40
2022-07-25T09:58:00.716Z,65.40
2022-07-25T10:00:29.882Z,65.40
2022-07-25T10:03:32.911Z,67.10
2022-07-25T10:06:39.345Z,69.00
2022-07-25T10:09:14.191Z,70.20
2022-07-25T10:12:01.578Z,70.60
2022-07-25T10:14:29.217Z,68.90
2022-07-25T10:16:57.046Z,70.80
2022-07-25T10:19:50.207Z,71.80
2022-07-25T10:22:34.334Z,72.40
2022-07-25T10:25:19.355Z,73.10
2022-07-25T10:27:49.866Z,72.20
2022-07-25T10:30:28.929Z,70.70
2022-07-25T10:35:38.013Z,74.40
2022-07-25T10:38:06.579Z,75.10
2022-07-25T10:40:45.653Z,77.00
2022-07-25T10:43:18.307Z,76.00
2022-07-25T10:45:51.268Z,76.40
2022-07-25T10:48:30.341Z,76.60
2022-07-25T10:51:02.294Z,75.60
2022-07-25T10:53:49.701Z,76.20
2022-07-25T10:56:22.443Z,77.10
2022-07-25T10:58:52.015Z,77.60
2022-07-25T11:01:27.359Z,78.40
2022-07-25T11:03:57.073Z,78.70
2022-07-25T11:06:36.306Z,77.60
2022-07-25T11:09:17.984Z,78.30
2022-07-25T11:11:48.879Z,77.80
2022-07-25T11:14:20.850Z,78.70
2022-07-25T11:16:53.438Z,79.80
2022-07-25T11:19:23.008Z,80.50
2022-07-25T11:21:56.076Z,80.80
2022-07-25T11:24:40.424Z,81.30
2022-07-25T11:27:12.516Z,81.20
2022-07-25T11:29:41.013Z,82.30
2022-07-25T11:32:10.903Z,84.00
2022-07-25T11:34:50.402Z,85.40
2022-07-25T11:37:19.873Z,84.80
2022-07-25T11:39:48.801Z,84.90
2022-07-25T11:42:19.236Z,86.30
2022-07-25T11:44:52.025Z,84.60
2022-07-25T11:47:37.885Z,85.60
2022-07-25T11:50:06.044Z,84.80
2022-07-25T11:52:38.031Z,84.60
2022-07-25T11:55:11.046Z,84.30
2022-07-25T11:57:46.381Z,84.50
2022-07-25T12:00:20.061Z,85.30
2022-07-25T12:02:50.007Z,85.00
2022-07-25T12:05:21.929Z,84.30
2022-07-25T12:07:55.053Z,83.60
2022-07-25T12:10:24.605Z,83.30
2022-07-25T12:12:57.104Z,83.80
2022-07-25T12:15:40.364Z,84.00
2022-07-25T12:18:12.692Z,84.30
2022-07-25T12:20:43.155Z,84.20
2022-07-25T12:23:12.623Z,84.90
2022-07-25T12:31:00.748Z,87.90
2022-07-25T12:33:31.546Z,88.20
2022-07-25T12:36:02.065Z,86.60
2022-07-25T12:38:33.212Z,87.40
2022-07-25T12:41:01.008Z,89.10
2022-07-25T12:43:28.404Z,89.30
2022-07-25T12:45:55.984Z,88.80
2022-07-25T12:48:23.496Z,88.00
2022-07-25T12:50:50.997Z,87.90
2022-07-25T12:53:25.743Z,88.70
2022-07-25T12:55:53.159Z,89.50
2022-07-25T12:58:21.690Z,89.60
2022-07-25T13:00:49.596Z,89.30
2022-07-25T13:03:18.137Z,87.40
2022-07-25T13:05:45.592Z,87.10
2022-07-25T13:08:13.008Z,87.80
2022-07-25T13:10:40.588Z,85.90
2022-07-25T13:13:32.506Z,85.70
2022-07-25T13:16:00.171Z,85.00
2022-07-25T13:18:27.579Z,86.10
2022-07-25T13:20:54.983Z,83.50
2022-07-25T13:23:22.499Z,82.20
2022-07-25T13:25:49.879Z,82.40
2022-07-25T13:28:17.378Z,74.20
2022-07-25T13:30:45.225Z,70.50
2022-07-25T13:33:13.087Z,71.30
2022-07-25T13:35:41.269Z,73.00
2022-07-25T13:38:12.405Z,74.00
2022-07-25T13:40:43.573Z,74.80
2022-07-25T13:43:12.737Z,73.10
2022-07-25T13:45:46.043Z,74.00
2022-07-25T13:48:30.870Z,74.20
2022-07-25T13:50:59.882Z,75.60
2022-07-25T13:53:30.243Z,76.10
2022-07-25T13:55:59.465Z,76.50
2022-07-25T13:58:27.790Z,78.10
2022-07-25T14:00:55.402Z,80.20
2022-07-25T14:03:23.066Z,80.60
2022-07-25T14:05:51.105Z,81.10
2022-07-25T14:08:19.506Z,81.90
2022-07-25T14:10:47.142Z,84.10
2022-07-25T14:13:14.550Z,84.30
2022-07-25T14:15:42.169Z,81.60
2022-07-25T14:18:10.042Z,82.00
2022-07-25T14:20:37.566Z,83.10
2022-07-25T14:23:05.275Z,80.50
2022-07-25T14:25:32.835Z,81.50
2022-07-25T14:28:00.834Z,83.00
2022-07-25T14:30:28.351Z,84.20
2022-07-25T14:32:55.895Z,86.00
2022-07-25T14:35:24.706Z,87.70
2022-07-25T14:37:55.031Z,89.70
2022-07-25T14:40:22.637Z,90.90
2022-07-25T14:42:50.010Z,91.40
2022-07-25T14:45:19.064Z,92.00
2022-07-25T14:47:46.685Z,92.40
2022-07-25T14:50:14.079Z,92.60
2022-07-25T14:52:47.766Z,92.70
2022-07-25T14:55:15.335Z,92.60
2022-07-25T14:57:45.226Z,92.60
2022-07-25T15:00:13.283Z,93.20
2022-07-25T15:02:40.878Z,93.70
2022-07-25T15:05:08.806Z,94.10
2022-07-25T15:07:37.993Z,94.10
2022-07-25T15:10:06.123Z,93.60
2022-07-25T15:12:33.989Z,93.90
2022-07-25T15:15:01.610Z,93.70
2022-07-25T15:17:29.324Z,93.50
2022-07-25T15:19:56.932Z,93.50
2022-07-25T15:22:24.526Z,93.50
2022-07-25T15:25:27.163Z,93.80
2022-07-25T15:27:41.657Z,93.60
2022-07-25T15:30:10.021Z,93.60
2022-07-25T15:32:39.328Z,93.60
2022-07-25T15:35:07.761Z,93.90
2022-07-25T15:37:37.637Z,93.40
2022-07-25T15:40:05.875Z,93.50
2022-07-25T15:42:34.087Z,93.50
2022-07-25T15:45:31.624Z,93.50
2022-07-25T15:47:51.756Z,93.80
2022-07-25T15:50:20.195Z,94.00
2022-07-25T15:52:47.961Z,94.30
2022-07-25T15:55:16.092Z,94.00
2022-07-25T15:57:46.488Z,94.10
2022-07-25T16:00:19.061Z,93.90
2022-07-25T16:02:47.076Z,93.90
2022-07-25T16:05:14.685Z,93.20
2022-07-25T16:07:42.567Z,93.20
2022-07-25T16:10:10.889Z,93.50
2022-07-25T16:12:39.015Z,93.60
2022-07-25T16:15:08.242Z,93.50
2022-07-25T16:17:37.282Z,93.90
2022-07-25T16:20:07.251Z,94.50
2022-07-25T16:22:35.085Z,94.60
2022-07-25T16:25:03.322Z,94.90
2022-07-25T16:27:30.981Z,95.30
2022-07-25T16:29:58.686Z,95.60
2022-07-25T16:32:26.302Z,95.90
2022-07-25T16:34:53.860Z,96.30
2022-07-25T16:37:21.675Z,96.50
2022-07-25T16:39:49.326Z,96.70
2022-07-25T16:42:17.024Z,96.70
2022-07-25T16:44:44.730Z,97.10
2022-07-25T16:47:12.221Z,97.20
2022-07-25T16:49:39.777Z,97.30
2022-07-25T16:52:07.297Z,97.30
2022-07-25T16:54:35.132Z,97.50
2022-07-25T16:59:31.619Z,97.80
2022-07-25T17:01:59.163Z,97.90
2022-07-25T17:04:27.411Z,98.10
2022-07-25T17:15:55.707Z,99.30
2022-07-25T17:18:23.376Z,99.50
2022-07-25T17:20:51.081Z,99.60
2022-07-25T17:28:36.417Z,99.90
2022-07-25T17:31:03.955Z,99.90
2022-07-25T17:33:31.961Z,99.90
2022-07-25T17:36:00.623Z,99.90
2022-07-25T17:38:34.564Z,99.90
2022-07-25T17:41:04.063Z,99.90
2022-07-25T17:43:31.965Z,99.90
2022-07-25T17:45:59.870Z,99.90
2022-07-25T17:48:27.631Z,99.90
2022-07-25T17:50:55.186Z,99.90
2022-07-25T17:53:22.850Z,99.90
2022-07-25T17:55:50.348Z,99.90
2022-07-25T17:58:17.818Z,99.90
2022-07-25T18:00:45.371Z,99.90
2022-07-25T18:03:15.473Z,99.90
2022-07-25T18:05:43.977Z,99.90
2022-07-25T18:08:11.739Z,99.90
2022-07-25T18:10:39.373Z,99.90
2022-07-25T18:13:06.971Z,99.90
2022-07-25T18:15:34.645Z,99.90
2022-07-25T18:18:04.161Z,99.90
2022-07-25T18:20:32.048Z,99.90
2022-07-25T18:22:59.620Z,99.90
2022-07-25T18:25:27.225Z,99.90
2022-07-25T18:27:54.743Z,99.90
2022-07-25T18:30:25.985Z,99.90
2022-07-25T18:32:57.100Z,99.90
2022-07-25T18:35:24.689Z,99.90
2022-07-25T18:37:52.161Z,99.90
2022-07-25T18:40:20.942Z,99.90
2022-07-25T18:42:48.492Z,99.90
2022-07-25T18:45:16.374Z,99.90
2022-07-25T18:47:44.676Z,99.90
2022-07-25T18:50:12.435Z,99.90
2022-07-25T18:52:40.378Z,99.90
2022-07-25T18:55:09.458Z,99.90
2022-07-25T18:57:37.293Z,99.90
2022-07-25T19:00:07.262Z,99.90
2022-07-25T19:02:35.212Z,99.90
2022-07-25T19:05:02.982Z,99.90
2022-07-25T19:07:31.392Z,99.90
2022-07-25T19:09:59.342Z,99.90
2022-07-25T19:12:27.487Z,99.90
2022-07-25T19:14:56.677Z,99.90
2022-07-25T19:17:24.469Z,99.90
2022-07-25T19:19:52.552Z,99.90
2022-07-25T19:22:20.517Z,99.90
2022-07-25T19:24:48.066Z,99.90
2022-07-25T19:27:15.740Z,99.90
2022-07-25T19:29:43.706Z,99.90
2022-07-25T19:32:11.474Z,99.90
2022-07-25T19:34:39.313Z,99.90
2022-07-25T19:37:06.725Z,99.90
2022-07-25T19:39:34.410Z,99.90
2022-07-25T19:42:02.069Z,99.90
2022-07-25T19:44:29.678Z,99.90
2022-07-25T19:46:57.804Z,99.90
2022-07-25T19:49:25.725Z,99.90
2022-07-25T19:51:53.372Z,99.90
2022-07-25T19:54:21.688Z,99.90
2022-07-25T19:56:49.203Z,99.90
2022-07-25T19:59:16.865Z,99.90
2022-07-25T20:01:47.221Z,99.90
2022-07-25T20:04:16.358Z,99.90
2022-07-25T20:06:44.752Z,99.90
2022-07-25T20:09:12.621Z,99.90
2022-07-25T20:11:43.804Z,99.90
2022-07-25T20:14:11.479Z,99.90
2022-07-25T20:16:42.036Z,99.90
2022-07-25T20:19:12.047Z,99.90
2022-07-25T20:21:40.804Z,99.90
2022-07-25T20:24:08.654Z,99.90
2022-07-25T20:26:42.638Z,99.90
2022-07-25T20:29:10.398Z,99.90
2022-07-25T20:31:38.249Z,99.90
2022-07-25T20:34:06.437Z,99.90
2022-07-25T20:36:34.162Z,99.90
2022-07-25T20:39:01.621Z,99.90
2022-07-25T20:41:29.268Z,99.90
2022-07-25T20:43:56.823Z,99.90
2022-07-25T20:46:24.459Z,99.90
2022-07-25T20:48:52.174Z,99.90
2022-07-25T20:51:19.767Z,99.90
2022-07-25T20:53:53.614Z,99.90
2022-07-25T20:56:21.447Z,99.90
2022-07-25T20:58:49.067Z,99.90
2022-07-25T21:01:16.744Z,99.90
2022-07-25T21:03:44.669Z,99.90
2022-07-25T21:06:12.116Z,99.90
2022-07-25T21:08:39.880Z,99.90
2022-07-25T21:11:07.827Z,99.90
2022-07-25T21:13:35.316Z,99.90
2022-07-25T21:16:03.265Z,99.90
2022-07-25T21:18:30.904Z,99.90
2022-07-25T21:20:59.532Z,99.90
2022-07-25T21:23:27.257Z,99.90
2022-07-25T21:25:55.389Z,99.90
2022-07-25T21:28:23.321Z,99.90
2022-07-25T21:30:53.702Z,99.90
2022-07-25T21:33:21.462Z,99.90
2022-07-25T21:35:52.037Z,99.90
2022-07-25T21:38:26.853Z,99.90
2022-07-25T21:40:57.719Z,99.90
2022-07-25T21:43:25.418Z,99.90
2022-07-25T21:45:53.630Z,99.90
2022-07-25T21:48:42.958Z,99.90
2022-07-25T21:51:19.324Z,99.90
2022-07-25T21:53:52.029Z,99.90
2022-07-25T21:56:20.368Z,99.90
2022-07-25T21:58:48.257Z,99.90
2022-07-25T22:01:16.470Z,99.90
2022-07-25T22:03:44.014Z,99.90
2022-07-25T22:06:11.669Z,99.90
2022-07-25T22:08:39.646Z,99.90
2022-07-25T22:11:16.011Z,99.90
2022-07-25T22:13:55.174Z,99.90
2022-07-25T22:16:22.833Z,99.90
2022-07-25T22:18:50.569Z,99.90
2022-07-25T22:21:18.345Z,99.90
2022-07-25T22:23:45.922Z,99.90
2022-07-25T22:26:13.369Z,99.90
2022-07-25T22:31:18.961Z,99.90
2022-07-25T22:36:20.414Z,99.90
2022-07-25T22:38:47.951Z,99.90
2022-07-25T22:41:15.513Z,99.90
2022-07-25T22:43:57.224Z,99.90
2022-07-25T22:46:26.842Z,99.90
2022-07-25T22:48:54.897Z,99.90
2022-07-25T22:51:22.632Z,99.90
2022-07-25T22:53:50.342Z,99.90
2022-07-25T22:56:18.834Z,99.90
2022-07-25T22:58:49.052Z,99.90
2022-07-25T23:01:20.959Z,99.90
2022-07-25T23:03:50.477Z,99.90
2022-07-25T23:06:19.398Z,99.90
2022-07-25T23:08:48.312Z,99.90
2022-07-25T23:11:16.077Z,99.90
2022-07-25T23:13:43.537Z,99.90
2022-07-25T23:16:11.486Z,99.90
2022-07-25T23:18:39.580Z,99.90
2022-07-25T23:21:07.257Z,99.90
2022-07-25T23:23:34.918Z,99.90
2022-07-25T23:26:02.938Z,99.90
2022-07-25T23:28:30.670Z,99.90
2022-07-25T23:30:58.291Z,99.90
2022-07-25T23:33:26.508Z,99.90
2022-07-25T23:35:54.994Z,99.90
2022-07-25T23:38:23.730Z,99.90
2022-07-25T23:40:51.309Z,99.90
2022-07-25T23:43:36.502Z,99.90
2022-07-25T23:46:07.452Z,99.90
2022-07-25T23:48:35.575Z,99.90
2022-07-25T23:53:31.172Z,99.90
2022-07-25T23:55:58.665Z,99.90
2022-07-25T23:58:26.207Z,99.90
